sensor_id;sensor_type;location;lat;lon;timestamp;P1;durP1;ratioP1;P2;durP2;ratioP2
7128;SDS011;3606;52.930;8.644;2022-08-11T00:02:47;3.10;;;2.77;;
7128;SDS011;3606;52.930;8.644;2022-08-11T00:05:16;3.87;;;2.70;;
7128;SDS011;3606;52.930;8.644;2022-08-11T00:10:16;3.30;;;2.93;;
7128;SDS011;3606;52.930;8.644;2022-08-11T00:12:49;4.97;;;3.07;;
7128;SDS011;3606;52.930;8.644;2022-08-11T00:15:17;6.50;;;2.80;;
7128;SDS011;3606;52.930;8.644;2022-08-11T00:17:43;7.10;;;3.53;;
7128;SDS011;3606;52.930;8.644;2022-08-11T00:20:11;5.20;;;2.90;;
7128;SDS011;3606;52.930;8.644;2022-08-11T00:22:41;5.27;;;3.27;;
7128;SDS011;3606;52.930;8.644;2022-08-11T00:25:13;8.03;;;3.20;;
7128;SDS011;3606;52.930;8.644;2022-08-11T00:27:43;4.37;;;2.77;;
7128;SDS011;3606;52.930;8.644;2022-08-11T00:30:11;5.20;;;3.00;;
7128;SDS011;3606;52.930;8.644;2022-08-11T00:32:37;2.90;;;2.60;;
7128;SDS011;3606;52.930;8.644;2022-08-11T00:35:06;3.40;;;2.90;;
7128;SDS011;3606;52.930;8.644;2022-08-11T00:37:35;3.37;;;2.80;;
7128;SDS011;3606;52.930;8.644;2022-08-11T00:40:03;3.67;;;3.10;;
7128;SDS011;3606;52.930;8.644;2022-08-11T00:45:41;10.40;;;3.57;;
7128;SDS011;3606;52.930;8.644;2022-08-11T00:48:35;4.57;;;3.37;;
7128;SDS011;3606;52.930;8.644;2022-08-11T00:51:40;3.40;;;3.10;;
7128;SDS011;3606;52.930;8.644;2022-08-11T01:08:39;4.20;;;3.33;;
7128;SDS011;3606;52.930;8.644;2022-08-11T01:14:32;4.57;;;3.23;;
7128;SDS011;3606;52.930;8.644;2022-08-11T01:20:02;4.47;;;3.30;;
7128;SDS011;3606;52.930;8.644;2022-08-11T01:30:58;5.73;;;3.50;;
7128;SDS011;3606;52.930;8.644;2022-08-11T01:45:39;3.80;;;3.37;;
7128;SDS011;3606;52.930;8.644;2022-08-11T01:51:04;5.77;;;3.37;;
7128;SDS011;3606;52.930;8.644;2022-08-11T01:56:48;4.20;;;3.43;;
7128;SDS011;3606;52.930;8.644;2022-08-11T01:59:31;10.17;;;3.60;;
7128;SDS011;3606;52.930;8.644;2022-08-11T02:05:28;7.40;;;4.17;;
7128;SDS011;3606;52.930;8.644;2022-08-11T02:11:14;5.33;;;3.50;;
7128;SDS011;3606;52.930;8.644;2022-08-11T02:16:47;5.27;;;3.60;;
7128;SDS011;3606;52.930;8.644;2022-08-11T02:19:23;5.47;;;3.90;;
7128;SDS011;3606;52.930;8.644;2022-08-11T02:25:58;4.17;;;3.73;;
7128;SDS011;3606;52.930;8.644;2022-08-11T02:28:30;4.17;;;3.70;;
7128;SDS011;3606;52.930;8.644;2022-08-11T02:31:14;4.73;;;3.97;;
7128;SDS011;3606;52.930;8.644;2022-08-11T02:36:58;5.27;;;3.93;;
7128;SDS011;3606;52.930;8.644;2022-08-11T02:39:36;5.17;;;3.77;;
7128;SDS011;3606;52.930;8.644;2022-08-11T02:42:15;4.70;;;4.30;;
7128;SDS011;3606;52.930;8.644;2022-08-11T02:45:11;6.00;;;3.37;;
7128;SDS011;3606;52.930;8.644;2022-08-11T02:51:19;4.83;;;3.57;;
7128;SDS011;3606;52.930;8.644;2022-08-11T02:54:16;5.37;;;3.50;;
7128;SDS011;3606;52.930;8.644;2022-08-11T02:57:09;4.50;;;3.70;;
7128;SDS011;3606;52.930;8.644;2022-08-11T03:08:30;3.87;;;3.47;;
7128;SDS011;3606;52.930;8.644;2022-08-11T03:19:56;5.20;;;3.73;;
7128;SDS011;3606;52.930;8.644;2022-08-11T03:22:48;5.30;;;3.60;;
7128;SDS011;3606;52.930;8.644;2022-08-11T03:25:41;5.30;;;3.90;;
7128;SDS011;3606;52.930;8.644;2022-08-11T03:28:33;5.57;;;3.57;;
7128;SDS011;3606;52.930;8.644;2022-08-11T03:31:25;3.47;;;3.17;;
7128;SDS011;3606;52.930;8.644;2022-08-11T03:34:00;6.73;;;4.30;;
7128;SDS011;3606;52.930;8.644;2022-08-11T03:39:21;4.10;;;3.70;;
7128;SDS011;3606;52.930;8.644;2022-08-11T03:47:56;5.77;;;3.43;;
7128;SDS011;3606;52.930;8.644;2022-08-11T03:53:46;4.93;;;4.20;;
7128;SDS011;3606;52.930;8.644;2022-08-11T04:19:10;5.83;;;4.03;;
7128;SDS011;3606;52.930;8.644;2022-08-11T04:27:45;5.67;;;4.30;;
7128;SDS011;3606;52.930;8.644;2022-08-11T04:30:22;7.10;;;3.97;;
7128;SDS011;3606;52.930;8.644;2022-08-11T04:35:45;5.53;;;3.77;;
7128;SDS011;3606;52.930;8.644;2022-08-11T04:38:37;4.03;;;3.60;;
7128;SDS011;3606;52.930;8.644;2022-08-11T04:54:20;4.87;;;3.63;;
7128;SDS011;3606;52.930;8.644;2022-08-11T05:03:44;4.40;;;3.60;;
7128;SDS011;3606;52.930;8.644;2022-08-11T05:09:45;6.13;;;4.10;;
7128;SDS011;3606;52.930;8.644;2022-08-11T05:15:18;6.93;;;3.60;;
7128;SDS011;3606;52.930;8.644;2022-08-11T05:18:17;5.50;;;3.80;;
7128;SDS011;3606;52.930;8.644;2022-08-11T05:21:06;7.13;;;4.00;;
7128;SDS011;3606;52.930;8.644;2022-08-11T05:24:03;3.73;;;3.23;;
7128;SDS011;3606;52.930;8.644;2022-08-11T05:26:54;6.43;;;4.00;;
7128;SDS011;3606;52.930;8.644;2022-08-11T05:29:44;4.30;;;3.37;;
7128;SDS011;3606;52.930;8.644;2022-08-11T05:32:37;4.73;;;3.47;;
7128;SDS011;3606;52.930;8.644;2022-08-11T05:36:07;3.70;;;3.37;;
7128;SDS011;3606;52.930;8.644;2022-08-11T05:38:24;7.30;;;3.40;;
7128;SDS011;3606;52.930;8.644;2022-08-11T05:41:10;6.67;;;3.70;;
7128;SDS011;3606;52.930;8.644;2022-08-11T05:43:57;3.73;;;3.13;;
7128;SDS011;3606;52.930;8.644;2022-08-11T05:46:42;3.67;;;3.20;;
7128;SDS011;3606;52.930;8.644;2022-08-11T05:49:31;5.30;;;3.60;;
7128;SDS011;3606;52.930;8.644;2022-08-11T05:52:20;3.90;;;3.50;;
7128;SDS011;3606;52.930;8.644;2022-08-11T05:55:12;5.57;;;3.03;;
7128;SDS011;3606;52.930;8.644;2022-08-11T05:58:02;6.90;;;3.10;;
7128;SDS011;3606;52.930;8.644;2022-08-11T06:00:29;3.20;;;2.80;;
7128;SDS011;3606;52.930;8.644;2022-08-11T06:02:59;4.85;;;3.22;;
7128;SDS011;3606;52.930;8.644;2022-08-11T06:05:35;4.75;;;2.80;;
7128;SDS011;3606;52.930;8.644;2022-08-11T06:08:03;6.20;;;2.90;;
7128;SDS011;3606;52.930;8.644;2022-08-11T06:10:32;3.22;;;2.70;;
7128;SDS011;3606;52.930;8.644;2022-08-11T06:13:00;5.72;;;2.85;;
7128;SDS011;3606;52.930;8.644;2022-08-11T06:15:29;4.32;;;2.58;;
7128;SDS011;3606;52.930;8.644;2022-08-11T06:17:57;3.90;;;2.85;;
7128;SDS011;3606;52.930;8.644;2022-08-11T06:20:25;3.17;;;2.60;;
7128;SDS011;3606;52.930;8.644;2022-08-11T06:22:57;3.88;;;3.03;;
7128;SDS011;3606;52.930;8.644;2022-08-11T06:25:34;3.25;;;2.88;;
7128;SDS011;3606;52.930;8.644;2022-08-11T06:28:05;3.75;;;2.92;;
7128;SDS011;3606;52.930;8.644;2022-08-11T06:30:35;4.47;;;2.53;;
7128;SDS011;3606;52.930;8.644;2022-08-11T06:33:17;2.33;;;2.13;;
7128;SDS011;3606;52.930;8.644;2022-08-11T06:41:23;3.92;;;2.67;;
7128;SDS011;3606;52.930;8.644;2022-08-11T06:49:08;3.60;;;2.80;;
7128;SDS011;3606;52.930;8.644;2022-08-11T06:52:01;3.53;;;2.70;;
7128;SDS011;3606;52.930;8.644;2022-08-11T06:54:32;2.95;;;2.47;;
7128;SDS011;3606;52.930;8.644;2022-08-11T06:57:00;6.13;;;2.50;;
7128;SDS011;3606;52.930;8.644;2022-08-11T06:59:47;4.63;;;2.58;;
7128;SDS011;3606;52.930;8.644;2022-08-11T07:02:51;4.45;;;2.60;;
7128;SDS011;3606;52.930;8.644;2022-08-11T07:05:37;3.30;;;2.30;;
7128;SDS011;3606;52.930;8.644;2022-08-11T07:11:43;4.75;;;2.80;;
7128;SDS011;3606;52.930;8.644;2022-08-11T07:14:37;3.20;;;2.50;;
7128;SDS011;3606;52.930;8.644;2022-08-11T07:17:48;4.38;;;2.40;;
7128;SDS011;3606;52.930;8.644;2022-08-11T07:20:35;4.00;;;2.47;;
7128;SDS011;3606;52.930;8.644;2022-08-11T07:23:22;3.92;;;2.45;;
7128;SDS011;3606;52.930;8.644;2022-08-11T07:26:07;3.10;;;2.60;;
7128;SDS011;3606;52.930;8.644;2022-08-11T07:28:53;3.10;;;2.33;;
7128;SDS011;3606;52.930;8.644;2022-08-11T07:31:20;2.78;;;2.45;;
7128;SDS011;3606;52.930;8.644;2022-08-11T07:33:49;3.20;;;2.50;;
7128;SDS011;3606;52.930;8.644;2022-08-11T07:36:19;5.40;;;2.92;;
7128;SDS011;3606;52.930;8.644;2022-08-11T07:38:49;3.85;;;2.45;;
7128;SDS011;3606;52.930;8.644;2022-08-11T07:41:21;3.05;;;2.58;;
7128;SDS011;3606;52.930;8.644;2022-08-11T07:43:49;3.17;;;2.58;;
7128;SDS011;3606;52.930;8.644;2022-08-11T07:46:32;4.47;;;2.60;;
7128;SDS011;3606;52.930;8.644;2022-08-11T07:49:19;2.30;;;2.10;;
7128;SDS011;3606;52.930;8.644;2022-08-11T07:52:03;2.72;;;2.42;;
7128;SDS011;3606;52.930;8.644;2022-08-11T07:54:48;3.53;;;2.33;;
7128;SDS011;3606;52.930;8.644;2022-08-11T07:57:14;5.93;;;2.58;;
7128;SDS011;3606;52.930;8.644;2022-08-11T07:59:58;3.35;;;2.25;;
7128;SDS011;3606;52.930;8.644;2022-08-11T08:02:43;4.32;;;2.40;;
7128;SDS011;3606;52.930;8.644;2022-08-11T08:05:28;3.53;;;2.50;;
7128;SDS011;3606;52.930;8.644;2022-08-11T08:08:14;5.32;;;2.40;;
7128;SDS011;3606;52.930;8.644;2022-08-11T08:10:59;2.95;;;2.30;;
7128;SDS011;3606;52.930;8.644;2022-08-11T08:13:44;4.80;;;2.30;;
7128;SDS011;3606;52.930;8.644;2022-08-11T08:16:29;5.07;;;2.25;;
7128;SDS011;3606;52.930;8.644;2022-08-11T08:19:14;3.40;;;1.98;;
7128;SDS011;3606;52.930;8.644;2022-08-11T08:21:42;2.65;;;2.05;;
7128;SDS011;3606;52.930;8.644;2022-08-11T08:24:09;3.63;;;2.50;;
7128;SDS011;3606;52.930;8.644;2022-08-11T08:26:35;2.08;;;1.88;;
7128;SDS011;3606;52.930;8.644;2022-08-11T08:29:20;3.33;;;2.53;;
7128;SDS011;3606;52.930;8.644;2022-08-11T08:32:06;3.28;;;2.28;;
7128;SDS011;3606;52.930;8.644;2022-08-11T08:34:35;3.35;;;2.05;;
7128;SDS011;3606;52.930;8.644;2022-08-11T08:37:02;4.72;;;2.30;;
7128;SDS011;3606;52.930;8.644;2022-08-11T08:39:29;3.17;;;1.85;;
7128;SDS011;3606;52.930;8.644;2022-08-11T08:41:58;4.15;;;2.13;;
7128;SDS011;3606;52.930;8.644;2022-08-11T08:44:31;3.15;;;2.10;;
7128;SDS011;3606;52.930;8.644;2022-08-11T08:47:00;2.65;;;2.33;;
7128;SDS011;3606;52.930;8.644;2022-08-11T08:49:35;5.75;;;2.05;;
7128;SDS011;3606;52.930;8.644;2022-08-11T08:52:06;1.95;;;1.85;;
7128;SDS011;3606;52.930;8.644;2022-08-11T08:54:36;3.22;;;1.75;;
7128;SDS011;3606;52.930;8.644;2022-08-11T08:57:04;2.35;;;2.15;;
7128;SDS011;3606;52.930;8.644;2022-08-11T08:59:36;3.67;;;1.73;;
7128;SDS011;3606;52.930;8.644;2022-08-11T09:02:04;1.90;;;1.80;;
7128;SDS011;3606;52.930;8.644;2022-08-11T09:04:31;1.55;;;1.45;;
7128;SDS011;3606;52.930;8.644;2022-08-11T09:06:59;2.28;;;1.73;;
7128;SDS011;3606;52.930;8.644;2022-08-11T09:09:31;2.88;;;1.70;;
7128;SDS011;3606;52.930;8.644;2022-08-11T09:11:57;2.13;;;1.85;;
7128;SDS011;3606;52.930;8.644;2022-08-11T09:14:31;3.50;;;1.88;;
7128;SDS011;3606;52.930;8.644;2022-08-11T09:17:18;2.38;;;1.92;;
7128;SDS011;3606;52.930;8.644;2022-08-11T09:19:45;2.05;;;1.60;;
7128;SDS011;3606;52.930;8.644;2022-08-11T09:22:12;1.80;;;1.70;;
7128;SDS011;3606;52.930;8.644;2022-08-11T09:25:02;3.78;;;1.90;;
7128;SDS011;3606;52.930;8.644;2022-08-11T09:27:48;1.75;;;1.65;;
7128;SDS011;3606;52.930;8.644;2022-08-11T09:30:14;1.83;;;1.70;;
7128;SDS011;3606;52.930;8.644;2022-08-11T09:32:40;3.33;;;2.00;;
7128;SDS011;3606;52.930;8.644;2022-08-11T09:35:07;1.83;;;1.73;;
7128;SDS011;3606;52.930;8.644;2022-08-11T09:37:33;2.95;;;2.00;;
7128;SDS011;3606;52.930;8.644;2022-08-11T09:40:19;1.95;;;1.85;;
7128;SDS011;3606;52.930;8.644;2022-08-11T09:42:55;2.35;;;2.00;;
7128;SDS011;3606;52.930;8.644;2022-08-11T09:45:48;2.47;;;2.28;;
7128;SDS011;3606;52.930;8.644;2022-08-11T09:48:19;2.58;;;2.15;;
7128;SDS011;3606;52.930;8.644;2022-08-11T09:50:48;5.72;;;2.05;;
7128;SDS011;3606;52.930;8.644;2022-08-11T09:53:25;2.78;;;2.00;;
7128;SDS011;3606;52.930;8.644;2022-08-11T09:55:54;2.88;;;2.50;;
7128;SDS011;3606;52.930;8.644;2022-08-11T09:58:20;2.88;;;2.60;;
7128;SDS011;3606;52.930;8.644;2022-08-11T10:00:48;3.85;;;2.20;;
7128;SDS011;3606;52.930;8.644;2022-08-11T10:05:43;2.45;;;1.70;;
7128;SDS011;3606;52.930;8.644;2022-08-11T10:08:29;2.80;;;2.30;;
7128;SDS011;3606;52.930;8.644;2022-08-11T10:10:57;3.15;;;2.00;;
7128;SDS011;3606;52.930;8.644;2022-08-11T10:13:25;1.88;;;1.77;;
7128;SDS011;3606;52.930;8.644;2022-08-11T10:16:00;3.13;;;2.10;;
7128;SDS011;3606;52.930;8.644;2022-08-11T10:18:40;2.30;;;2.05;;
7128;SDS011;3606;52.930;8.644;2022-08-11T10:21:14;2.88;;;1.95;;
7128;SDS011;3606;52.930;8.644;2022-08-11T10:23:48;2.53;;;2.33;;
7128;SDS011;3606;52.930;8.644;2022-08-11T10:26:35;5.38;;;2.05;;
7128;SDS011;3606;52.930;8.644;2022-08-11T10:29:18;3.78;;;2.17;;
7128;SDS011;3606;52.930;8.644;2022-08-11T10:32:07;2.60;;;2.05;;
7128;SDS011;3606;52.930;8.644;2022-08-11T10:34:53;3.15;;;1.90;;
7128;SDS011;3606;52.930;8.644;2022-08-11T10:37:20;1.95;;;1.75;;
7128;SDS011;3606;52.930;8.644;2022-08-11T10:39:47;2.05;;;1.70;;
7128;SDS011;3606;52.930;8.644;2022-08-11T10:42:14;2.10;;;1.90;;
7128;SDS011;3606;52.930;8.644;2022-08-11T10:44:59;2.97;;;1.83;;
7128;SDS011;3606;52.930;8.644;2022-08-11T10:47:28;5.82;;;1.95;;
7128;SDS011;3606;52.930;8.644;2022-08-11T10:50:08;2.38;;;1.60;;
7128;SDS011;3606;52.930;8.644;2022-08-11T10:52:56;2.00;;;1.80;;
7128;SDS011;3606;52.930;8.644;2022-08-11T10:55:42;2.05;;;1.85;;
7128;SDS011;3606;52.930;8.644;2022-08-11T10:58:28;4.80;;;1.70;;
7128;SDS011;3606;52.930;8.644;2022-08-11T11:01:14;2.50;;;1.88;;
7128;SDS011;3606;52.930;8.644;2022-08-11T11:04:29;5.22;;;2.10;;
7128;SDS011;3606;52.930;8.644;2022-08-11T11:06:57;1.88;;;1.58;;
7128;SDS011;3606;52.930;8.644;2022-08-11T11:09:41;2.70;;;1.80;;
7128;SDS011;3606;52.930;8.644;2022-08-11T11:15:12;2.30;;;2.00;;
7128;SDS011;3606;52.930;8.644;2022-08-11T11:18:03;5.45;;;1.70;;
7128;SDS011;3606;52.930;8.644;2022-08-11T11:23:15;2.13;;;1.92;;
7128;SDS011;3606;52.930;8.644;2022-08-11T11:37:06;2.17;;;1.48;;
7128;SDS011;3606;52.930;8.644;2022-08-11T11:39:32;2.38;;;1.65;;
7128;SDS011;3606;52.930;8.644;2022-08-11T11:42:02;2.38;;;1.80;;
7128;SDS011;3606;52.930;8.644;2022-08-11T11:44:30;3.42;;;1.65;;
7128;SDS011;3606;52.930;8.644;2022-08-11T11:46:57;2.85;;;1.67;;
7128;SDS011;3606;52.930;8.644;2022-08-11T11:49:26;3.60;;;1.85;;
7128;SDS011;3606;52.930;8.644;2022-08-11T11:51:54;3.42;;;1.80;;
7128;SDS011;3606;52.930;8.644;2022-08-11T11:54:21;2.25;;;1.63;;
7128;SDS011;3606;52.930;8.644;2022-08-11T11:56:50;1.70;;;1.60;;
7128;SDS011;3606;52.930;8.644;2022-08-11T11:59:18;2.10;;;1.92;;
7128;SDS011;3606;52.930;8.644;2022-08-11T12:02:05;1.80;;;1.70;;
7128;SDS011;3606;52.930;8.644;2022-08-11T12:04:32;2.78;;;2.10;;
7128;SDS011;3606;52.930;8.644;2022-08-11T12:07:00;2.05;;;1.85;;
7128;SDS011;3606;52.930;8.644;2022-08-11T12:09:45;1.80;;;1.67;;
7128;SDS011;3606;52.930;8.644;2022-08-11T12:12:12;2.25;;;1.58;;
7128;SDS011;3606;52.930;8.644;2022-08-11T12:14:56;3.45;;;2.08;;
7128;SDS011;3606;52.930;8.644;2022-08-11T12:17:22;3.42;;;1.65;;
7128;SDS011;3606;52.930;8.644;2022-08-11T12:19:48;1.65;;;1.55;;
7128;SDS011;3606;52.930;8.644;2022-08-11T12:22:14;3.28;;;2.03;;
7128;SDS011;3606;52.930;8.644;2022-08-11T12:24:59;2.47;;;1.92;;
7128;SDS011;3606;52.930;8.644;2022-08-11T12:27:45;4.35;;;2.00;;
7128;SDS011;3606;52.930;8.644;2022-08-11T12:30:11;2.20;;;1.80;;
7128;SDS011;3606;52.930;8.644;2022-08-11T12:32:37;2.38;;;1.63;;
7128;SDS011;3606;52.930;8.644;2022-08-11T12:35:07;2.92;;;1.80;;
7128;SDS011;3606;52.930;8.644;2022-08-11T12:37:38;1.83;;;1.73;;
7128;SDS011;3606;52.930;8.644;2022-08-11T12:40:10;4.15;;;1.95;;
7128;SDS011;3606;52.930;8.644;2022-08-11T12:42:58;2.03;;;1.80;;
7128;SDS011;3606;52.930;8.644;2022-08-11T12:45:45;2.55;;;2.00;;
7128;SDS011;3606;52.930;8.644;2022-08-11T12:48:15;2.22;;;1.95;;
7128;SDS011;3606;52.930;8.644;2022-08-11T12:51:11;3.00;;;1.80;;
7128;SDS011;3606;52.930;8.644;2022-08-11T12:54:12;1.90;;;1.70;;
7128;SDS011;3606;52.930;8.644;2022-08-11T12:56:49;2.45;;;1.58;;
7128;SDS011;3606;52.930;8.644;2022-08-11T12:59:40;2.88;;;1.90;;
7128;SDS011;3606;52.930;8.644;2022-08-11T13:02:25;5.45;;;1.92;;
7128;SDS011;3606;52.930;8.644;2022-08-11T13:05:11;4.35;;;1.95;;
7128;SDS011;3606;52.930;8.644;2022-08-11T13:07:38;3.10;;;1.83;;
7128;SDS011;3606;52.930;8.644;2022-08-11T13:10:09;1.65;;;1.55;;
7128;SDS011;3606;52.930;8.644;2022-08-11T13:12:37;1.95;;;1.85;;
7128;SDS011;3606;52.930;8.644;2022-08-11T13:15:19;5.32;;;1.98;;
7128;SDS011;3606;52.930;8.644;2022-08-11T13:17:49;2.63;;;1.77;;
7128;SDS011;3606;52.930;8.644;2022-08-11T13:20:18;2.00;;;1.80;;
7128;SDS011;3606;52.930;8.644;2022-08-11T13:22:48;2.38;;;1.80;;
7128;SDS011;3606;52.930;8.644;2022-08-11T13:25:20;5.45;;;1.98;;
7128;SDS011;3606;52.930;8.644;2022-08-11T13:27:47;5.28;;;1.90;;
7128;SDS011;3606;52.930;8.644;2022-08-11T13:30:15;1.90;;;1.80;;
7128;SDS011;3606;52.930;8.644;2022-08-11T13:33:17;2.28;;;1.90;;
7128;SDS011;3606;52.930;8.644;2022-08-11T13:35:46;2.47;;;2.20;;
7128;SDS011;3606;52.930;8.644;2022-08-11T13:38:16;5.10;;;2.00;;
7128;SDS011;3606;52.930;8.644;2022-08-11T13:40:44;2.53;;;1.90;;
7128;SDS011;3606;52.930;8.644;2022-08-11T13:43:11;3.67;;;1.98;;
7128;SDS011;3606;52.930;8.644;2022-08-11T13:45:38;4.22;;;2.20;;
7128;SDS011;3606;52.930;8.644;2022-08-11T13:48:05;4.30;;;1.90;;
7128;SDS011;3606;52.930;8.644;2022-08-11T13:50:33;3.13;;;1.75;;
7128;SDS011;3606;52.930;8.644;2022-08-11T13:53:23;2.05;;;1.95;;
7128;SDS011;3606;52.930;8.644;2022-08-11T13:55:49;2.60;;;2.30;;
7128;SDS011;3606;52.930;8.644;2022-08-11T13:58:16;4.30;;;2.13;;
7128;SDS011;3606;52.930;8.644;2022-08-11T14:00:47;3.05;;;1.95;;
7128;SDS011;3606;52.930;8.644;2022-08-11T14:03:14;2.65;;;2.40;;
7128;SDS011;3606;52.930;8.644;2022-08-11T14:05:47;3.15;;;2.03;;
7128;SDS011;3606;52.930;8.644;2022-08-11T14:08:17;2.15;;;1.95;;
7128;SDS011;3606;52.930;8.644;2022-08-11T14:10:47;3.70;;;2.03;;
7128;SDS011;3606;52.930;8.644;2022-08-11T14:13:37;5.35;;;2.30;;
7128;SDS011;3606;52.930;8.644;2022-08-11T14:16:16;3.75;;;2.00;;
7128;SDS011;3606;52.930;8.644;2022-08-11T14:18:46;5.50;;;2.40;;
7128;SDS011;3606;52.930;8.644;2022-08-11T14:21:15;2.13;;;1.92;;
7128;SDS011;3606;52.930;8.644;2022-08-11T14:24:01;3.00;;;1.98;;
7128;SDS011;3606;52.930;8.644;2022-08-11T14:26:28;4.25;;;2.20;;
7128;SDS011;3606;52.930;8.644;2022-08-11T14:29:01;5.43;;;2.40;;
7128;SDS011;3606;52.930;8.644;2022-08-11T14:31:39;3.88;;;2.05;;
7128;SDS011;3606;52.930;8.644;2022-08-11T14:34:09;2.30;;;2.10;;
7128;SDS011;3606;52.930;8.644;2022-08-11T14:36:39;2.20;;;2.00;;
7128;SDS011;3606;52.930;8.644;2022-08-11T14:39:08;4.07;;;2.10;;
7128;SDS011;3606;52.930;8.644;2022-08-11T14:41:36;2.30;;;2.05;;
7128;SDS011;3606;52.930;8.644;2022-08-11T14:44:25;4.20;;;2.10;;
7128;SDS011;3606;52.930;8.644;2022-08-11T14:47:11;7.40;;;2.20;;
7128;SDS011;3606;52.930;8.644;2022-08-11T14:49:39;5.70;;;2.10;;
7128;SDS011;3606;52.930;8.644;2022-08-11T14:52:07;3.88;;;2.03;;
7128;SDS011;3606;52.930;8.644;2022-08-11T14:54:34;3.40;;;2.30;;
7128;SDS011;3606;52.930;8.644;2022-08-11T14:57:20;8.35;;;2.75;;
7128;SDS011;3606;52.930;8.644;2022-08-11T14:59:48;3.53;;;2.10;;
7128;SDS011;3606;52.930;8.644;2022-08-11T15:02:14;4.18;;;2.15;;
7128;SDS011;3606;52.930;8.644;2022-08-11T15:05:00;2.78;;;2.15;;
7128;SDS011;3606;52.930;8.644;2022-08-11T15:07:28;5.38;;;2.10;;
7128;SDS011;3606;52.930;8.644;2022-08-11T15:09:56;2.35;;;2.15;;
7128;SDS011;3606;52.930;8.644;2022-08-11T15:12:23;2.60;;;2.22;;
7128;SDS011;3606;52.930;8.644;2022-08-11T15:14:50;3.40;;;2.22;;
7128;SDS011;3606;52.930;8.644;2022-08-11T15:17:35;3.03;;;2.15;;
7128;SDS011;3606;52.930;8.644;2022-08-11T15:20:03;3.08;;;2.20;;
7128;SDS011;3606;52.930;8.644;2022-08-11T15:22:50;6.40;;;2.25;;
7128;SDS011;3606;52.930;8.644;2022-08-11T15:25:35;2.75;;;2.00;;
7128;SDS011;3606;52.930;8.644;2022-08-11T15:28:03;2.40;;;2.20;;
7128;SDS011;3606;52.930;8.644;2022-08-11T15:30:51;2.20;;;2.00;;
7128;SDS011;3606;52.930;8.644;2022-08-11T15:33:38;2.45;;;2.22;;
7128;SDS011;3606;52.930;8.644;2022-08-11T15:36:25;2.42;;;2.22;;
7128;SDS011;3606;52.930;8.644;2022-08-11T15:39:18;7.60;;;2.38;;
7128;SDS011;3606;52.930;8.644;2022-08-11T15:41:50;2.00;;;1.80;;
7128;SDS011;3606;52.930;8.644;2022-08-11T15:44:56;3.72;;;2.30;;
7128;SDS011;3606;52.930;8.644;2022-08-11T15:47:45;2.67;;;2.45;;
7128;SDS011;3606;52.930;8.644;2022-08-11T15:50:21;2.47;;;2.28;;
7128;SDS011;3606;52.930;8.644;2022-08-11T15:52:55;2.90;;;2.15;;
7128;SDS011;3606;52.930;8.644;2022-08-11T15:55:23;2.40;;;2.13;;
7128;SDS011;3606;52.930;8.644;2022-08-11T15:57:51;3.53;;;2.22;;
7128;SDS011;3606;52.930;8.644;2022-08-11T16:00:37;3.20;;;2.22;;
7128;SDS011;3606;52.930;8.644;2022-08-11T16:03:23;3.03;;;2.30;;
7128;SDS011;3606;52.930;8.644;2022-08-11T16:06:08;3.65;;;2.25;;
7128;SDS011;3606;52.930;8.644;2022-08-11T16:08:36;3.20;;;2.05;;
7128;SDS011;3606;52.930;8.644;2022-08-11T16:11:05;4.25;;;2.20;;
7128;SDS011;3606;52.930;8.644;2022-08-11T16:13:32;3.45;;;2.38;;
7128;SDS011;3606;52.930;8.644;2022-08-11T16:16:00;4.43;;;2.20;;
7128;SDS011;3606;52.930;8.644;2022-08-11T16:18:52;2.45;;;2.10;;
7128;SDS011;3606;52.930;8.644;2022-08-11T16:21:26;3.72;;;2.50;;
7128;SDS011;3606;52.930;8.644;2022-08-11T16:23:57;2.95;;;2.30;;
7128;SDS011;3606;52.930;8.644;2022-08-11T16:26:25;3.40;;;2.20;;
7128;SDS011;3606;52.930;8.644;2022-08-11T16:28:56;2.53;;;2.20;;
7128;SDS011;3606;52.930;8.644;2022-08-11T16:31:24;4.10;;;2.40;;
7128;SDS011;3606;52.930;8.644;2022-08-11T16:33:52;4.05;;;2.25;;
7128;SDS011;3606;52.930;8.644;2022-08-11T16:36:19;3.47;;;2.20;;
7128;SDS011;3606;52.930;8.644;2022-08-11T16:39:06;3.30;;;2.22;;
7128;SDS011;3606;52.930;8.644;2022-08-11T16:41:34;2.88;;;2.30;;
7128;SDS011;3606;52.930;8.644;2022-08-11T16:44:21;4.00;;;2.30;;
7128;SDS011;3606;52.930;8.644;2022-08-11T16:47:09;3.45;;;2.58;;
7128;SDS011;3606;52.930;8.644;2022-08-11T16:49:55;4.57;;;2.20;;
7128;SDS011;3606;52.930;8.644;2022-08-11T16:52:22;3.88;;;2.35;;
7128;SDS011;3606;52.930;8.644;2022-08-11T16:54:48;3.17;;;1.95;;
7128;SDS011;3606;52.930;8.644;2022-08-11T16:57:21;3.97;;;2.60;;
7128;SDS011;3606;52.930;8.644;2022-08-11T17:00:07;4.97;;;3.13;;
7128;SDS011;3606;52.930;8.644;2022-08-11T17:02:37;4.00;;;2.80;;
7128;SDS011;3606;52.930;8.644;2022-08-11T17:05:34;4.45;;;2.60;;
7128;SDS011;3606;52.930;8.644;2022-08-11T17:08:25;9.80;;;3.20;;
7128;SDS011;3606;52.930;8.644;2022-08-11T17:11:17;7.60;;;2.97;;
7128;SDS011;3606;52.930;8.644;2022-08-11T17:14:09;3.47;;;2.50;;
7128;SDS011;3606;52.930;8.644;2022-08-11T17:16:38;3.53;;;2.70;;
7128;SDS011;3606;52.930;8.644;2022-08-11T17:19:10;2.83;;;2.40;;
7128;SDS011;3606;52.930;8.644;2022-08-11T17:21:41;2.40;;;2.17;;
7128;SDS011;3606;52.930;8.644;2022-08-11T17:24:26;2.30;;;2.10;;
7128;SDS011;3606;52.930;8.644;2022-08-11T17:26:55;3.38;;;2.45;;
7128;SDS011;3606;52.930;8.644;2022-08-11T17:31:49;2.70;;;2.25;;
7128;SDS011;3606;52.930;8.644;2022-08-11T17:34:35;2.50;;;2.30;;
7128;SDS011;3606;52.930;8.644;2022-08-11T17:37:20;3.10;;;2.10;;
7128;SDS011;3606;52.930;8.644;2022-08-11T17:39:47;2.90;;;2.40;;
7128;SDS011;3606;52.930;8.644;2022-08-11T17:42:14;3.90;;;2.35;;
7128;SDS011;3606;52.930;8.644;2022-08-11T17:44:59;3.58;;;1.98;;
7128;SDS011;3606;52.930;8.644;2022-08-11T17:47:45;3.17;;;2.30;;
7128;SDS011;3606;52.930;8.644;2022-08-11T17:50:30;6.07;;;2.20;;
7128;SDS011;3606;52.930;8.644;2022-08-11T17:52:58;2.53;;;2.33;;
7128;SDS011;3606;52.930;8.644;2022-08-11T17:55:43;4.40;;;3.00;;
7128;SDS011;3606;52.930;8.644;2022-08-11T17:58:28;3.78;;;2.30;;
7128;SDS011;3606;52.930;8.644;2022-08-11T18:01:14;2.95;;;2.38;;
7128;SDS011;3606;52.930;8.644;2022-08-11T18:03:42;6.43;;;2.10;;
7128;SDS011;3606;52.930;8.644;2022-08-11T18:06:09;2.38;;;2.05;;
7128;SDS011;3606;52.930;8.644;2022-08-11T18:08:37;2.75;;;2.25;;
7128;SDS011;3606;52.930;8.644;2022-08-11T18:11:29;2.90;;;2.58;;
7128;SDS011;3606;52.930;8.644;2022-08-11T18:14:15;3.00;;;2.70;;
7128;SDS011;3606;52.930;8.644;2022-08-11T18:17:02;3.75;;;2.60;;
7128;SDS011;3606;52.930;8.644;2022-08-11T18:19:46;3.47;;;2.30;;
7128;SDS011;3606;52.930;8.644;2022-08-11T18:22:32;2.80;;;2.50;;
7128;SDS011;3606;52.930;8.644;2022-08-11T18:25:20;6.20;;;4.18;;
7128;SDS011;3606;52.930;8.644;2022-08-11T18:28:09;5.90;;;2.60;;
7128;SDS011;3606;52.930;8.644;2022-08-11T18:30:56;3.00;;;2.55;;
7128;SDS011;3606;52.930;8.644;2022-08-11T18:33:50;3.63;;;2.08;;
7128;SDS011;3606;52.930;8.644;2022-08-11T18:37:18;2.70;;;2.22;;
7128;SDS011;3606;52.930;8.644;2022-08-11T18:39:46;2.55;;;2.28;;
7128;SDS011;3606;52.930;8.644;2022-08-11T18:42:32;2.75;;;2.25;;
7128;SDS011;3606;52.930;8.644;2022-08-11T18:45:18;4.40;;;2.40;;
7128;SDS011;3606;52.930;8.644;2022-08-11T18:48:05;2.40;;;2.20;;
7128;SDS011;3606;52.930;8.644;2022-08-11T18:50:54;2.58;;;2.38;;
7128;SDS011;3606;52.930;8.644;2022-08-11T18:53:43;5.05;;;2.60;;
7128;SDS011;3606;52.930;8.644;2022-08-11T18:56:31;2.55;;;2.35;;
7128;SDS011;3606;52.930;8.644;2022-08-11T18:59:17;3.85;;;2.10;;
7128;SDS011;3606;52.930;8.644;2022-08-11T19:02:06;2.55;;;2.20;;
7128;SDS011;3606;52.930;8.644;2022-08-11T19:04:51;3.03;;;2.30;;
7128;SDS011;3606;52.930;8.644;2022-08-11T19:07:38;3.90;;;2.40;;
7128;SDS011;3606;52.930;8.644;2022-08-11T19:10:23;5.60;;;2.10;;
7128;SDS011;3606;52.930;8.644;2022-08-11T19:13:08;3.67;;;2.47;;
7128;SDS011;3606;52.930;8.644;2022-08-11T19:15:52;3.07;;;2.20;;
7128;SDS011;3606;52.930;8.644;2022-08-11T19:18:38;3.70;;;2.70;;
7128;SDS011;3606;52.930;8.644;2022-08-11T19:21:24;4.30;;;2.67;;
7128;SDS011;3606;52.930;8.644;2022-08-11T19:24:10;3.93;;;2.47;;
7128;SDS011;3606;52.930;8.644;2022-08-11T19:26:56;2.57;;;2.37;;
7128;SDS011;3606;52.930;8.644;2022-08-11T19:29:41;3.47;;;2.40;;
7128;SDS011;3606;52.930;8.644;2022-08-11T19:32:27;2.90;;;2.40;;
7128;SDS011;3606;52.930;8.644;2022-08-11T19:35:12;2.67;;;2.47;;
7128;SDS011;3606;52.930;8.644;2022-08-11T19:37:57;2.83;;;2.50;;